Forestville, CA

4:46 AM PDT on September 20, 2014 (GMT -0700)
Green Valley Village | Change Station
CLOSE
Current Station
Personal Weather Station
Location: Sebastopol, CA
Elevation: 282 ft
Nearby Weather Stations

Elev 282 ft 38.46 °N, 122.93 °W | Updated 4 minutes ago

Overcast
Overcast
58.3 °F
Feels Like 58.3 °F
N
1.7
Wind Variable Wind from WNW

Today
High -- | Low -- °F
--% Chance of Precip.
Yesterday
High -- | Low -- °F
Precip. -- in
6:57 AM 7:11 PM
Waning Crescent, 13% visible
Pressure 29.86 in
Visibility 6.0 miles
Clouds Overcast 400 ft
Dew Point 58 °F
Humidity 98%
Rainfall 0.00 in
Snow Depth 0 in , 0 in , 0 in
UV 0 out of 12
Pollen 4.00 out of 12
Air Quality Not available.
Flu Activity Not available.
METAR KSTS 201053Z AUTO 00000KT 6SM BR OVC004 15/14 A2988 RMK AO2 SLP110 T01500144

More Conditions Fewer Conditions

Pressure 29.86 in
Visibility 6.0 miles
Clouds Overcast 400 ft
Dew Point 58 °F
Humidity 98%
Rainfall 0.00 in
Snow Depth 0 in , 0 in , 0 in
UV 0 out of 12
Pollen 4.00 out of 12
Air Quality Not available.
Flu Activity Not available.
METAR KSTS 201053Z AUTO 00000KT 6SM BR OVC004 15/14 A2988 RMK AO2 SLP110 T01500144

More Conditions Fewer Conditions

10-Day Weather Forecast

Almanac

Astronomy

Sep. 20, 2014 Rise Set
Actual Time 6:57 AM PDT 7:11 PM PDT
Civil Twilight 6:31 AM PDT 7:38 PM PDT
Nautical Twilight 6:00 AM PDT 8:09 PM PDT
Astronomical Twilight 5:28 AM PDT 8:40 PM PDT
Moon 3:43 AM PDT 5:16 PM PDT
Length of Visible Light 13h 06m
Length of Day
12h 13m
Tomorrow will be 2m 28s shorter.
Waning Crescent, 13% of the Moon is Illuminated
Today
Waning Crescent
Sep 24
New
Oct 1
First Quarter
Oct 8
Full
Oct 15
Last Quarter

Today's Extremes

State Highs State Lows

Community

WunderPhotos

Upload Photos

1,754,835 photos uploaded!

Nearby

Air Quality

  Air Quality AQ Index Pollutant
Saturday Moderate
PM2.5
Sunday Moderate
PM2.5
Monday Moderate
PM2.5
Tuesday Moderate
PM2.5
Wednesday Moderate
PM2.5

Snow Depth

Station Depth Elevation
Crowder Flat 0 in 5100 ft
Burnside Lake 0 in 8139 ft
Hagan's Meadow 0 in 8000 ft
Spratt Creek 1 in 6200 ft
Heavenly Valley 0 in 8850 ft

Earthquake Activity

City Distance Mag. Time & Date
Livermore, California 84 miles 2.6 3:37 AM PDT
2014-09-19
The Geysers, California 20 miles 2.5 11:29 PM PDT
2014-09-17
Minimum magnitude displayed is 2.5.

Coastal Water Temperatures

Place Temperature
Point Reyes, CA 66.0 °F
Arena Cove, CA 62.1 °F
San Francisco, CA 64.9 °F
Richmond, CA 68.0 °F

Nearby Weather Stations